sensor_id;sensor_type;location;lat;lon;timestamp;P1;durP1;ratioP1;P2;durP2;ratioP2
55015;SDS011;40919;43.236;21.590;2023-07-09T00:00:15;11.55;;;8.65;;
55015;SDS011;40919;43.236;21.590;2023-07-09T00:02:44;15.40;;;8.27;;
55015;SDS011;40919;43.236;21.590;2023-07-09T00:05:14;9.75;;;7.45;;
55015;SDS011;40919;43.236;21.590;2023-07-09T00:07:41;13.25;;;8.73;;
55015;SDS011;40919;43.236;21.590;2023-07-09T00:10:15;12.90;;;8.63;;
55015;SDS011;40919;43.236;21.590;2023-07-09T00:12:42;13.18;;;8.30;;
55015;SDS011;40919;43.236;21.590;2023-07-09T00:15:09;10.70;;;8.68;;
55015;SDS011;40919;43.236;21.590;2023-07-09T00:17:37;11.18;;;7.63;;
55015;SDS011;40919;43.236;21.590;2023-07-09T00:20:05;10.93;;;7.72;;
55015;SDS011;40919;43.236;21.590;2023-07-09T00:22:36;11.93;;;8.20;;
55015;SDS011;40919;43.236;21.590;2023-07-09T00:25:02;10.18;;;7.43;;
55015;SDS011;40919;43.236;21.590;2023-07-09T00:27:29;12.82;;;7.88;;
55015;SDS011;40919;43.236;21.590;2023-07-09T00:29:55;12.95;;;7.75;;
55015;SDS011;40919;43.236;21.590;2023-07-09T00:32:21;10.02;;;7.13;;
55015;SDS011;40919;43.236;21.590;2023-07-09T00:34:47;10.57;;;7.30;;
55015;SDS011;40919;43.236;21.590;2023-07-09T00:37:16;12.60;;;7.82;;
55015;SDS011;40919;43.236;21.590;2023-07-09T00:39:46;11.60;;;8.45;;
55015;SDS011;40919;43.236;21.590;2023-07-09T00:42:17;19.90;;;8.60;;
55015;SDS011;40919;43.236;21.590;2023-07-09T00:44:46;11.48;;;8.20;;
55015;SDS011;40919;43.236;21.590;2023-07-09T00:47:35;12.45;;;8.00;;
55015;SDS011;40919;43.236;21.590;2023-07-09T00:53:25;11.98;;;7.60;;
55015;SDS011;40919;43.236;21.590;2023-07-09T00:56:01;10.05;;;7.40;;
55015;SDS011;40919;43.236;21.590;2023-07-09T00:58:31;17.80;;;8.10;;
55015;SDS011;40919;43.236;21.590;2023-07-09T01:01:02;10.45;;;7.90;;
55015;SDS011;40919;43.236;21.590;2023-07-09T01:03:34;10.93;;;7.93;;
55015;SDS011;40919;43.236;21.590;2023-07-09T01:06:01;11.60;;;7.80;;
55015;SDS011;40919;43.236;21.590;2023-07-09T01:08:31;10.07;;;8.00;;
55015;SDS011;40919;43.236;21.590;2023-07-09T01:10:59;8.25;;;6.85;;
55015;SDS011;40919;43.236;21.590;2023-07-09T01:13:26;8.73;;;7.18;;
55015;SDS011;40919;43.236;21.590;2023-07-09T01:15:54;14.35;;;8.38;;
55015;SDS011;40919;43.236;21.590;2023-07-09T01:18:21;10.90;;;7.70;;
55015;SDS011;40919;43.236;21.590;2023-07-09T01:20:49;12.57;;;8.30;;
55015;SDS011;40919;43.236;21.590;2023-07-09T01:23:18;10.30;;;7.13;;
55015;SDS011;40919;43.236;21.590;2023-07-09T01:25:46;9.57;;;7.10;;
55015;SDS011;40919;43.236;21.590;2023-07-09T01:28:17;12.43;;;8.15;;
55015;SDS011;40919;43.236;21.590;2023-07-09T01:30:44;9.43;;;7.70;;
55015;SDS011;40919;43.236;21.590;2023-07-09T01:33:10;8.75;;;6.43;;
55015;SDS011;40919;43.236;21.590;2023-07-09T01:35:37;10.23;;;7.35;;
55015;SDS011;40919;43.236;21.590;2023-07-09T01:38:07;10.68;;;7.60;;
55015;SDS011;40919;43.236;21.590;2023-07-09T01:40:34;13.48;;;8.65;;
55015;SDS011;40919;43.236;21.590;2023-07-09T01:43:01;10.77;;;7.20;;
55015;SDS011;40919;43.236;21.590;2023-07-09T01:45:31;11.95;;;7.00;;
55015;SDS011;40919;43.236;21.590;2023-07-09T01:47:59;13.85;;;6.82;;
55015;SDS011;40919;43.236;21.590;2023-07-09T01:50:27;13.57;;;7.25;;
55015;SDS011;40919;43.236;21.590;2023-07-09T01:52:53;9.82;;;7.40;;
55015;SDS011;40919;43.236;21.590;2023-07-09T01:55:20;9.85;;;7.25;;
55015;SDS011;40919;43.236;21.590;2023-07-09T01:57:46;10.35;;;7.53;;
55015;SDS011;40919;43.236;21.590;2023-07-09T02:00:14;8.40;;;7.13;;
55015;SDS011;40919;43.236;21.590;2023-07-09T02:02:41;9.52;;;7.15;;
55015;SDS011;40919;43.236;21.590;2023-07-09T02:05:09;8.50;;;7.22;;
55015;SDS011;40919;43.236;21.590;2023-07-09T02:07:36;12.77;;;7.57;;
55015;SDS011;40919;43.236;21.590;2023-07-09T02:10:03;13.60;;;7.50;;
55015;SDS011;40919;43.236;21.590;2023-07-09T02:12:29;10.02;;;7.35;;
55015;SDS011;40919;43.236;21.590;2023-07-09T02:14:55;9.50;;;7.35;;
55015;SDS011;40919;43.236;21.590;2023-07-09T02:17:21;11.85;;;6.65;;
55015;SDS011;40919;43.236;21.590;2023-07-09T02:19:46;7.68;;;6.72;;
55015;SDS011;40919;43.236;21.590;2023-07-09T02:22:12;10.63;;;7.30;;
55015;SDS011;40919;43.236;21.590;2023-07-09T02:24:38;11.68;;;7.00;;
55015;SDS011;40919;43.236;21.590;2023-07-09T02:27:05;9.80;;;7.60;;
55015;SDS011;40919;43.236;21.590;2023-07-09T02:29:32;9.93;;;7.38;;
55015;SDS011;40919;43.236;21.590;2023-07-09T02:31:58;10.10;;;7.10;;
55015;SDS011;40919;43.236;21.590;2023-07-09T02:34:26;11.88;;;7.68;;
55015;SDS011;40919;43.236;21.590;2023-07-09T02:36:53;11.00;;;7.28;;
55015;SDS011;40919;43.236;21.590;2023-07-09T02:39:19;12.88;;;7.10;;
55015;SDS011;40919;43.236;21.590;2023-07-09T02:41:46;17.65;;;7.47;;
55015;SDS011;40919;43.236;21.590;2023-07-09T02:44:12;9.20;;;7.43;;
55015;SDS011;40919;43.236;21.590;2023-07-09T02:46:38;8.80;;;7.32;;
55015;SDS011;40919;43.236;21.590;2023-07-09T02:49:04;8.68;;;7.57;;
55015;SDS011;40919;43.236;21.590;2023-07-09T02:51:31;11.32;;;6.88;;
55015;SDS011;40919;43.236;21.590;2023-07-09T02:53:59;9.27;;;6.95;;
55015;SDS011;40919;43.236;21.590;2023-07-09T02:56:27;9.23;;;7.43;;
55015;SDS011;40919;43.236;21.590;2023-07-09T02:58:53;9.60;;;6.68;;
55015;SDS011;40919;43.236;21.590;2023-07-09T03:01:19;10.93;;;7.20;;
55015;SDS011;40919;43.236;21.590;2023-07-09T03:03:50;10.93;;;7.45;;
55015;SDS011;40919;43.236;21.590;2023-07-09T03:06:18;9.68;;;6.80;;
55015;SDS011;40919;43.236;21.590;2023-07-09T03:08:45;11.65;;;7.43;;
55015;SDS011;40919;43.236;21.590;2023-07-09T03:11:12;10.25;;;7.25;;
55015;SDS011;40919;43.236;21.590;2023-07-09T03:13:38;10.05;;;6.75;;
55015;SDS011;40919;43.236;21.590;2023-07-09T03:16:04;8.10;;;7.28;;
55015;SDS011;40919;43.236;21.590;2023-07-09T03:18:30;9.27;;;7.38;;
55015;SDS011;40919;43.236;21.590;2023-07-09T03:20:57;11.75;;;7.55;;
55015;SDS011;40919;43.236;21.590;2023-07-09T03:23:23;10.77;;;7.15;;
55015;SDS011;40919;43.236;21.590;2023-07-09T03:25:49;10.07;;;7.45;;
55015;SDS011;40919;43.236;21.590;2023-07-09T03:28:14;10.85;;;8.27;;
55015;SDS011;40919;43.236;21.590;2023-07-09T03:30:41;16.77;;;7.90;;
55015;SDS011;40919;43.236;21.590;2023-07-09T03:33:08;10.40;;;7.15;;
55015;SDS011;40919;43.236;21.590;2023-07-09T03:35:34;11.05;;;7.68;;
55015;SDS011;40919;43.236;21.590;2023-07-09T03:38:01;9.70;;;7.43;;
55015;SDS011;40919;43.236;21.590;2023-07-09T03:40:27;9.20;;;8.00;;
55015;SDS011;40919;43.236;21.590;2023-07-09T03:42:53;13.43;;;7.88;;
55015;SDS011;40919;43.236;21.590;2023-07-09T03:45:19;11.18;;;8.18;;
55015;SDS011;40919;43.236;21.590;2023-07-09T03:47:44;9.90;;;7.28;;
55015;SDS011;40919;43.236;21.590;2023-07-09T03:50:10;8.77;;;7.50;;
55015;SDS011;40919;43.236;21.590;2023-07-09T03:52:36;11.32;;;7.60;;
55015;SDS011;40919;43.236;21.590;2023-07-09T03:55:02;10.70;;;7.93;;
55015;SDS011;40919;43.236;21.590;2023-07-09T03:57:31;11.57;;;6.78;;
55015;SDS011;40919;43.236;21.590;2023-07-09T03:59:58;12.63;;;7.20;;
55015;SDS011;40919;43.236;21.590;2023-07-09T04:02:24;10.98;;;7.55;;
55015;SDS011;40919;43.236;21.590;2023-07-09T04:04:49;12.82;;;7.63;;
55015;SDS011;40919;43.236;21.590;2023-07-09T04:07:15;13.55;;;7.35;;
55015;SDS011;40919;43.236;21.590;2023-07-09T04:09:41;14.70;;;7.00;;
55015;SDS011;40919;43.236;21.590;2023-07-09T04:12:08;10.57;;;7.32;;
55015;SDS011;40919;43.236;21.590;2023-07-09T04:14:34;9.00;;;6.72;;
55015;SDS011;40919;43.236;21.590;2023-07-09T04:17:00;9.65;;;7.13;;
55015;SDS011;40919;43.236;21.590;2023-07-09T04:19:26;12.45;;;7.28;;
55015;SDS011;40919;43.236;21.590;2023-07-09T04:21:52;9.45;;;7.00;;
55015;SDS011;40919;43.236;21.590;2023-07-09T04:24:18;11.88;;;7.72;;
55015;SDS011;40919;43.236;21.590;2023-07-09T04:26:45;11.13;;;6.75;;
55015;SDS011;40919;43.236;21.590;2023-07-09T04:29:12;9.50;;;7.10;;
55015;SDS011;40919;43.236;21.590;2023-07-09T04:31:39;9.32;;;7.05;;
55015;SDS011;40919;43.236;21.590;2023-07-09T04:34:06;10.55;;;6.72;;
55015;SDS011;40919;43.236;21.590;2023-07-09T04:36:33;9.05;;;7.03;;
55015;SDS011;40919;43.236;21.590;2023-07-09T04:38:59;9.40;;;7.05;;
55015;SDS011;40919;43.236;21.590;2023-07-09T04:41:25;8.27;;;6.63;;
55015;SDS011;40919;43.236;21.590;2023-07-09T04:43:51;13.25;;;7.55;;
55015;SDS011;40919;43.236;21.590;2023-07-09T04:46:16;10.88;;;7.20;;
55015;SDS011;40919;43.236;21.590;2023-07-09T04:48:42;8.77;;;7.10;;
55015;SDS011;40919;43.236;21.590;2023-07-09T04:51:08;11.32;;;6.95;;
55015;SDS011;40919;43.236;21.590;2023-07-09T04:53:34;9.32;;;6.65;;
55015;SDS011;40919;43.236;21.590;2023-07-09T04:56:00;9.90;;;7.18;;
55015;SDS011;40919;43.236;21.590;2023-07-09T04:58:27;9.88;;;7.97;;
55015;SDS011;40919;43.236;21.590;2023-07-09T05:00:57;10.88;;;6.57;;
55015;SDS011;40919;43.236;21.590;2023-07-09T05:03:24;8.18;;;7.05;;
55015;SDS011;40919;43.236;21.590;2023-07-09T05:05:50;8.73;;;6.85;;
55015;SDS011;40919;43.236;21.590;2023-07-09T05:08:16;11.45;;;6.97;;
55015;SDS011;40919;43.236;21.590;2023-07-09T05:13:09;11.02;;;7.30;;
55015;SDS011;40919;43.236;21.590;2023-07-09T05:15:37;9.63;;;6.60;;
55015;SDS011;40919;43.236;21.590;2023-07-09T05:18:05;11.55;;;6.85;;
55015;SDS011;40919;43.236;21.590;2023-07-09T05:20:32;10.25;;;8.02;;
55015;SDS011;40919;43.236;21.590;2023-07-09T05:22:58;8.25;;;6.90;;
55015;SDS011;40919;43.236;21.590;2023-07-09T05:25:24;9.98;;;6.22;;
55015;SDS011;40919;43.236;21.590;2023-07-09T05:27:50;9.32;;;6.93;;
55015;SDS011;40919;43.236;21.590;2023-07-09T05:30:16;9.07;;;6.93;;
55015;SDS011;40919;43.236;21.590;2023-07-09T05:32:46;10.65;;;7.30;;
55015;SDS011;40919;43.236;21.590;2023-07-09T05:35:12;7.90;;;6.78;;
55015;SDS011;40919;43.236;21.590;2023-07-09T05:37:38;10.98;;;7.03;;
55015;SDS011;40919;43.236;21.590;2023-07-09T05:40:05;9.50;;;6.80;;
55015;SDS011;40919;43.236;21.590;2023-07-09T05:42:32;12.40;;;6.70;;
55015;SDS011;40919;43.236;21.590;2023-07-09T05:44:58;8.57;;;6.78;;
55015;SDS011;40919;43.236;21.590;2023-07-09T05:47:25;9.32;;;5.95;;
55015;SDS011;40919;43.236;21.590;2023-07-09T05:49:51;7.43;;;6.13;;
55015;SDS011;40919;43.236;21.590;2023-07-09T05:52:18;9.82;;;7.00;;
55015;SDS011;40919;43.236;21.590;2023-07-09T05:54:48;9.27;;;6.30;;
55015;SDS011;40919;43.236;21.590;2023-07-09T05:57:15;13.38;;;6.85;;
55015;SDS011;40919;43.236;21.590;2023-07-09T05:59:41;11.48;;;7.25;;
55015;SDS011;40919;43.236;21.590;2023-07-09T06:02:11;9.98;;;6.40;;
55015;SDS011;40919;43.236;21.590;2023-07-09T06:04:37;7.18;;;6.13;;
55015;SDS011;40919;43.236;21.590;2023-07-09T06:07:03;11.85;;;6.45;;
55015;SDS011;40919;43.236;21.590;2023-07-09T06:09:29;8.93;;;6.40;;
55015;SDS011;40919;43.236;21.590;2023-07-09T06:11:56;9.63;;;6.13;;
55015;SDS011;40919;43.236;21.590;2023-07-09T06:14:23;10.13;;;6.85;;
55015;SDS011;40919;43.236;21.590;2023-07-09T06:16:49;8.27;;;6.72;;
55015;SDS011;40919;43.236;21.590;2023-07-09T06:19:15;11.85;;;6.30;;
55015;SDS011;40919;43.236;21.590;2023-07-09T06:21:40;10.23;;;6.60;;
55015;SDS011;40919;43.236;21.590;2023-07-09T06:24:06;9.05;;;6.82;;
55015;SDS011;40919;43.236;21.590;2023-07-09T06:26:33;10.27;;;6.50;;
55015;SDS011;40919;43.236;21.590;2023-07-09T06:28:59;9.63;;;6.38;;
55015;SDS011;40919;43.236;21.590;2023-07-09T06:31:25;20.17;;;6.90;;
55015;SDS011;40919;43.236;21.590;2023-07-09T06:33:52;11.60;;;6.95;;
55015;SDS011;40919;43.236;21.590;2023-07-09T06:36:18;23.05;;;14.38;;
55015;SDS011;40919;43.236;21.590;2023-07-09T06:38:45;11.60;;;6.63;;
55015;SDS011;40919;43.236;21.590;2023-07-09T06:41:11;11.35;;;8.50;;
55015;SDS011;40919;43.236;21.590;2023-07-09T06:43:37;11.98;;;7.15;;
55015;SDS011;40919;43.236;21.590;2023-07-09T06:46:07;11.15;;;6.75;;
55015;SDS011;40919;43.236;21.590;2023-07-09T06:48:36;12.85;;;9.80;;
55015;SDS011;40919;43.236;21.590;2023-07-09T06:51:01;16.25;;;11.55;;
55015;SDS011;40919;43.236;21.590;2023-07-09T06:53:28;10.85;;;6.95;;
55015;SDS011;40919;43.236;21.590;2023-07-09T06:55:54;12.82;;;6.22;;
55015;SDS011;40919;43.236;21.590;2023-07-09T06:58:24;11.60;;;6.93;;
55015;SDS011;40919;43.236;21.590;2023-07-09T07:00:52;11.10;;;6.45;;
55015;SDS011;40919;43.236;21.590;2023-07-09T07:03:21;8.90;;;6.25;;
55015;SDS011;40919;43.236;21.590;2023-07-09T07:05:52;13.10;;;7.00;;
55015;SDS011;40919;43.236;21.590;2023-07-09T07:08:19;9.98;;;6.35;;
55015;SDS011;40919;43.236;21.590;2023-07-09T07:10:48;8.77;;;6.25;;
55015;SDS011;40919;43.236;21.590;2023-07-09T07:13:15;9.35;;;5.97;;
55015;SDS011;40919;43.236;21.590;2023-07-09T07:15:41;9.25;;;6.30;;
55015;SDS011;40919;43.236;21.590;2023-07-09T07:18:13;12.40;;;6.03;;
55015;SDS011;40919;43.236;21.590;2023-07-09T07:20:38;7.07;;;5.55;;
55015;SDS011;40919;43.236;21.590;2023-07-09T07:23:04;11.05;;;5.78;;
55015;SDS011;40919;43.236;21.590;2023-07-09T07:25:31;7.88;;;5.35;;
55015;SDS011;40919;43.236;21.590;2023-07-09T07:27:57;11.05;;;5.63;;
55015;SDS011;40919;43.236;21.590;2023-07-09T07:30:23;7.43;;;5.03;;
55015;SDS011;40919;43.236;21.590;2023-07-09T07:32:49;7.00;;;5.20;;
55015;SDS011;40919;43.236;21.590;2023-07-09T07:35:27;7.65;;;4.80;;
55015;SDS011;40919;43.236;21.590;2023-07-09T07:37:59;9.15;;;5.25;;
55015;SDS011;40919;43.236;21.590;2023-07-09T07:40:25;11.98;;;5.35;;
55015;SDS011;40919;43.236;21.590;2023-07-09T07:42:50;9.43;;;4.85;;
55015;SDS011;40919;43.236;21.590;2023-07-09T07:45:16;9.13;;;5.82;;
55015;SDS011;40919;43.236;21.590;2023-07-09T07:47:42;8.25;;;4.57;;
55015;SDS011;40919;43.236;21.590;2023-07-09T07:50:09;9.65;;;4.90;;
55015;SDS011;40919;43.236;21.590;2023-07-09T07:52:35;8.75;;;4.90;;
55015;SDS011;40919;43.236;21.590;2023-07-09T07:55:05;11.00;;;5.10;;
55015;SDS011;40919;43.236;21.590;2023-07-09T07:57:32;8.23;;;5.20;;
55015;SDS011;40919;43.236;21.590;2023-07-09T07:59:59;7.78;;;4.53;;
55015;SDS011;40919;43.236;21.590;2023-07-09T08:02:25;7.38;;;4.93;;
55015;SDS011;40919;43.236;21.590;2023-07-09T08:04:51;11.18;;;4.78;;
55015;SDS011;40919;43.236;21.590;2023-07-09T08:07:17;6.47;;;4.75;;
55015;SDS011;40919;43.236;21.590;2023-07-09T08:09:44;6.88;;;4.15;;
55015;SDS011;40919;43.236;21.590;2023-07-09T08:12:11;7.70;;;4.28;;
55015;SDS011;40919;43.236;21.590;2023-07-09T08:14:41;11.90;;;4.07;;
55015;SDS011;40919;43.236;21.590;2023-07-09T08:17:09;7.13;;;3.30;;
55015;SDS011;40919;43.236;21.590;2023-07-09T08:19:48;6.80;;;4.03;;
55015;SDS011;40919;43.236;21.590;2023-07-09T08:22:21;8.15;;;4.93;;
55015;SDS011;40919;43.236;21.590;2023-07-09T08:24:47;8.57;;;4.30;;
55015;SDS011;40919;43.236;21.590;2023-07-09T08:27:17;8.38;;;4.47;;
55015;SDS011;40919;43.236;21.590;2023-07-09T08:29:44;7.22;;;4.10;;
55015;SDS011;40919;43.236;21.590;2023-07-09T08:32:11;8.98;;;4.35;;
55015;SDS011;40919;43.236;21.590;2023-07-09T08:34:40;7.45;;;5.60;;
55015;SDS011;40919;43.236;21.590;2023-07-09T08:37:07;12.60;;;4.78;;
55015;SDS011;40919;43.236;21.590;2023-07-09T08:39:34;8.27;;;4.68;;
55015;SDS011;40919;43.236;21.590;2023-07-09T08:42:04;7.97;;;5.70;;
55015;SDS011;40919;43.236;21.590;2023-07-09T08:50:12;7.18;;;3.30;;
55015;SDS011;40919;43.236;21.590;2023-07-09T08:52:48;6.18;;;3.78;;
55015;SDS011;40919;43.236;21.590;2023-07-09T08:55:17;6.68;;;3.65;;
55015;SDS011;40919;43.236;21.590;2023-07-09T08:57:46;4.65;;;2.95;;
55015;SDS011;40919;43.236;21.590;2023-07-09T09:05:39;6.00;;;2.90;;
55015;SDS011;40919;43.236;21.590;2023-07-09T09:13:48;4.78;;;2.72;;
55015;SDS011;40919;43.236;21.590;2023-07-09T09:21:21;3.60;;;2.20;;
55015;SDS011;40919;43.236;21.590;2023-07-09T09:24:12;5.78;;;2.40;;
55015;SDS011;40919;43.236;21.590;2023-07-09T09:26:42;5.93;;;3.03;;
55015;SDS011;40919;43.236;21.590;2023-07-09T09:29:13;7.18;;;3.40;;
55015;SDS011;40919;43.236;21.590;2023-07-09T09:31:42;3.67;;;2.28;;
55015;SDS011;40919;43.236;21.590;2023-07-09T09:34:22;4.95;;;2.70;;
55015;SDS011;40919;43.236;21.590;2023-07-09T09:36:53;4.85;;;3.28;;
55015;SDS011;40919;43.236;21.590;2023-07-09T09:39:19;5.15;;;2.92;;
55015;SDS011;40919;43.236;21.590;2023-07-09T09:41:46;6.03;;;3.17;;
55015;SDS011;40919;43.236;21.590;2023-07-09T09:44:19;4.85;;;2.75;;
55015;SDS011;40919;43.236;21.590;2023-07-09T09:46:48;5.95;;;3.20;;
55015;SDS011;40919;43.236;21.590;2023-07-09T09:49:15;5.80;;;3.72;;
55015;SDS011;40919;43.236;21.590;2023-07-09T09:51:43;4.82;;;2.40;;
55015;SDS011;40919;43.236;21.590;2023-07-09T09:54:14;5.28;;;3.08;;
55015;SDS011;40919;43.236;21.590;2023-07-09T09:56:42;5.45;;;3.13;;
55015;SDS011;40919;43.236;21.590;2023-07-09T09:59:21;5.38;;;3.08;;
55015;SDS011;40919;43.236;21.590;2023-07-09T10:01:58;8.02;;;3.40;;
55015;SDS011;40919;43.236;21.590;2023-07-09T10:04:25;3.78;;;2.40;;
55015;SDS011;40919;43.236;21.590;2023-07-09T10:06:53;5.72;;;2.80;;
55015;SDS011;40919;43.236;21.590;2023-07-09T10:09:41;4.75;;;2.58;;
55015;SDS011;40919;43.236;21.590;2023-07-09T10:14:58;9.38;;;2.53;;
55015;SDS011;40919;43.236;21.590;2023-07-09T10:20:28;7.75;;;2.70;;
55015;SDS011;40919;43.236;21.590;2023-07-09T10:25:51;5.30;;;3.10;;
55015;SDS011;40919;43.236;21.590;2023-07-09T10:31:50;7.95;;;3.30;;
55015;SDS011;40919;43.236;21.590;2023-07-09T10:33:57;7.50;;;2.55;;
55015;SDS011;40919;43.236;21.590;2023-07-09T10:36:30;6.57;;;3.10;;
55015;SDS011;40919;43.236;21.590;2023-07-09T10:41:27;6.53;;;3.92;;
55015;SDS011;40919;43.236;21.590;2023-07-09T10:44:04;7.82;;;2.90;;
55015;SDS011;40919;43.236;21.590;2023-07-09T10:46:34;6.93;;;3.20;;
55015;SDS011;40919;43.236;21.590;2023-07-09T10:49:00;4.90;;;2.67;;
55015;SDS011;40919;43.236;21.590;2023-07-09T10:51:32;4.35;;;2.78;;
55015;SDS011;40919;43.236;21.590;2023-07-09T10:54:08;5.05;;;3.05;;
55015;SDS011;40919;43.236;21.590;2023-07-09T10:56:37;6.28;;;2.80;;
55015;SDS011;40919;43.236;21.590;2023-07-09T11:01:40;6.97;;;3.30;;
55015;SDS011;40919;43.236;21.590;2023-07-09T11:04:11;7.15;;;3.70;;
55015;SDS011;40919;43.236;21.590;2023-07-09T11:06:41;10.32;;;3.83;;
55015;SDS011;40919;43.236;21.590;2023-07-09T11:09:26;9.02;;;4.75;;
55015;SDS011;40919;43.236;21.590;2023-07-09T11:11:55;7.53;;;4.10;;
55015;SDS011;40919;43.236;21.590;2023-07-09T11:14:23;4.95;;;3.30;;
55015;SDS011;40919;43.236;21.590;2023-07-09T11:16:52;4.63;;;2.50;;
55015;SDS011;40919;43.236;21.590;2023-07-09T11:19:21;5.03;;;2.58;;
55015;SDS011;40919;43.236;21.590;2023-07-09T11:22:04;6.18;;;2.53;;
55015;SDS011;40919;43.236;21.590;2023-07-09T11:27:34;6.55;;;3.15;;
55015;SDS011;40919;43.236;21.590;2023-07-09T11:30:28;4.38;;;2.40;;
55015;SDS011;40919;43.236;21.590;2023-07-09T11:33:04;4.25;;;2.42;;
55015;SDS011;40919;43.236;21.590;2023-07-09T11:35:52;4.40;;;2.53;;
55015;SDS011;40919;43.236;21.590;2023-07-09T11:38:18;5.88;;;2.60;;
55015;SDS011;40919;43.236;21.590;2023-07-09T11:40:48;5.13;;;2.17;;
55015;SDS011;40919;43.236;21.590;2023-07-09T11:46:14;4.57;;;2.83;;
55015;SDS011;40919;43.236;21.590;2023-07-09T11:48:42;6.53;;;3.03;;
55015;SDS011;40919;43.236;21.590;2023-07-09T11:51:24;5.85;;;3.10;;
55015;SDS011;40919;43.236;21.590;2023-07-09T11:53:54;5.90;;;3.13;;
55015;SDS011;40919;43.236;21.590;2023-07-09T11:56:21;6.68;;;2.75;;
55015;SDS011;40919;43.236;21.590;2023-07-09T11:58:54;6.70;;;2.90;;
55015;SDS011;40919;43.236;21.590;2023-07-09T12:01:22;5.10;;;2.25;;
55015;SDS011;40919;43.236;21.590;2023-07-09T12:03:52;4.75;;;2.45;;
55015;SDS011;40919;43.236;21.590;2023-07-09T12:06:20;4.57;;;2.50;;
55015;SDS011;40919;43.236;21.590;2023-07-09T12:08:47;5.88;;;2.45;;
55015;SDS011;40919;43.236;21.590;2023-07-09T12:11:30;5.70;;;3.10;;
55015;SDS011;40919;43.236;21.590;2023-07-09T12:14:04;5.05;;;2.60;;
55015;SDS011;40919;43.236;21.590;2023-07-09T12:16:35;5.00;;;2.78;;
55015;SDS011;40919;43.236;21.590;2023-07-09T12:21:28;4.20;;;2.30;;
55015;SDS011;40919;43.236;21.590;2023-07-09T12:23:59;4.45;;;2.35;;
55015;SDS011;40919;43.236;21.590;2023-07-09T12:26:30;4.35;;;3.00;;
55015;SDS011;40919;43.236;21.590;2023-07-09T12:28:57;5.10;;;2.58;;
55015;SDS011;40919;43.236;21.590;2023-07-09T12:31:31;4.82;;;2.65;;
55015;SDS011;40919;43.236;21.590;2023-07-09T12:33:58;3.53;;;2.47;;
55015;SDS011;40919;43.236;21.590;2023-07-09T12:36:25;4.18;;;2.53;;
55015;SDS011;40919;43.236;21.590;2023-07-09T12:38:52;5.30;;;2.38;;
55015;SDS011;40919;43.236;21.590;2023-07-09T12:41:38;5.53;;;2.72;;
55015;SDS011;40919;43.236;21.590;2023-07-09T12:44:05;5.00;;;2.72;;
55015;SDS011;40919;43.236;21.590;2023-07-09T12:46:44;5.25;;;2.78;;
55015;SDS011;40919;43.236;21.590;2023-07-09T12:52:19;3.75;;;2.25;;
55015;SDS011;40919;43.236;21.590;2023-07-09T12:54:55;4.57;;;2.30;;
55015;SDS011;40919;43.236;21.590;2023-07-09T12:57:21;5.05;;;2.85;;
55015;SDS011;40919;43.236;21.590;2023-07-09T12:59:48;4.75;;;2.72;;
55015;SDS011;40919;43.236;21.590;2023-07-09T13:02:19;4.93;;;2.47;;
55015;SDS011;40919;43.236;21.590;2023-07-09T13:04:45;6.65;;;2.90;;
55015;SDS011;40919;43.236;21.590;2023-07-09T13:12:55;6.78;;;3.50;;
55015;SDS011;40919;43.236;21.590;2023-07-09T13:15:26;4.57;;;2.90;;
55015;SDS011;40919;43.236;21.590;2023-07-09T13:18:02;5.60;;;2.95;;
55015;SDS011;40919;43.236;21.590;2023-07-09T13:20:33;6.00;;;3.55;;
55015;SDS011;40919;43.236;21.590;2023-07-09T13:32:22;6.20;;;2.60;;
55015;SDS011;40919;43.236;21.590;2023-07-09T13:34:48;4.80;;;2.63;;
55015;SDS011;40919;43.236;21.590;2023-07-09T13:37:15;4.80;;;2.35;;
55015;SDS011;40919;43.236;21.590;2023-07-09T13:39:41;4.03;;;2.30;;
55015;SDS011;40919;43.236;21.590;2023-07-09T13:42:12;4.85;;;2.45;;
55015;SDS011;40919;43.236;21.590;2023-07-09T13:44:39;5.67;;;2.30;;
55015;SDS011;40919;43.236;21.590;2023-07-09T13:47:07;3.75;;;2.05;;
55015;SDS011;40919;43.236;21.590;2023-07-09T13:49:35;6.55;;;2.88;;
55015;SDS011;40919;43.236;21.590;2023-07-09T13:52:01;6.65;;;2.22;;
55015;SDS011;40919;43.236;21.590;2023-07-09T13:54:28;6.18;;;2.38;;
55015;SDS011;40919;43.236;21.590;2023-07-09T13:57:00;6.28;;;2.33;;
55015;SDS011;40919;43.236;21.590;2023-07-09T13:59:27;4.75;;;2.10;;
55015;SDS011;40919;43.236;21.590;2023-07-09T14:01:54;4.32;;;2.25;;
55015;SDS011;40919;43.236;21.590;2023-07-09T14:04:21;5.32;;;2.20;;
55015;SDS011;40919;43.236;21.590;2023-07-09T14:06:47;4.95;;;2.08;;
55015;SDS011;40919;43.236;21.590;2023-07-09T14:09:14;4.35;;;2.17;;
55015;SDS011;40919;43.236;21.590;2023-07-09T14:11:45;6.70;;;2.22;;
55015;SDS011;40919;43.236;21.590;2023-07-09T14:14:25;7.97;;;2.22;;
55015;SDS011;40919;43.236;21.590;2023-07-09T14:16:51;4.88;;;2.22;;
55015;SDS011;40919;43.236;21.590;2023-07-09T14:19:19;5.60;;;2.30;;
55015;SDS011;40919;43.236;21.590;2023-07-09T14:21:45;3.67;;;1.95;;
55015;SDS011;40919;43.236;21.590;2023-07-09T14:24:22;6.75;;;2.90;;
55015;SDS011;40919;43.236;21.590;2023-07-09T14:26:49;4.15;;;2.17;;
55015;SDS011;40919;43.236;21.590;2023-07-09T14:29:16;5.28;;;2.85;;
55015;SDS011;40919;43.236;21.590;2023-07-09T14:31:43;4.38;;;2.63;;
55015;SDS011;40919;43.236;21.590;2023-07-09T14:34:21;4.20;;;2.40;;
55015;SDS011;40919;43.236;21.590;2023-07-09T14:36:47;4.28;;;2.10;;
55015;SDS011;40919;43.236;21.590;2023-07-09T14:39:13;3.83;;;2.35;;
55015;SDS011;40919;43.236;21.590;2023-07-09T14:41:40;6.97;;;2.70;;
55015;SDS011;40919;43.236;21.590;2023-07-09T14:47:04;3.92;;;2.08;;
55015;SDS011;40919;43.236;21.590;2023-07-09T14:49:35;4.57;;;2.17;;
55015;SDS011;40919;43.236;21.590;2023-07-09T14:52:01;4.05;;;2.55;;
55015;SDS011;40919;43.236;21.590;2023-07-09T14:54:29;4.10;;;2.55;;
55015;SDS011;40919;43.236;21.590;2023-07-09T14:56:56;6.47;;;2.53;;
55015;SDS011;40919;43.236;21.590;2023-07-09T14:59:23;3.85;;;2.22;;
55015;SDS011;40919;43.236;21.590;2023-07-09T15:01:49;6.28;;;2.33;;
55015;SDS011;40919;43.236;21.590;2023-07-09T15:06:48;7.53;;;2.65;;
55015;SDS011;40919;43.236;21.590;2023-07-09T15:09:16;4.80;;;2.50;;
55015;SDS011;40919;43.236;21.590;2023-07-09T15:11:42;4.25;;;2.40;;
55015;SDS011;40919;43.236;21.590;2023-07-09T15:14:10;3.70;;;2.08;;
55015;SDS011;40919;43.236;21.590;2023-07-09T15:16:37;4.22;;;2.28;;
55015;SDS011;40919;43.236;21.590;2023-07-09T15:19:13;3.72;;;2.72;;
55015;SDS011;40919;43.236;21.590;2023-07-09T15:21:39;5.55;;;2.45;;
55015;SDS011;40919;43.236;21.590;2023-07-09T15:24:18;7.03;;;3.00;;
55015;SDS011;40919;43.236;21.590;2023-07-09T15:26:46;4.90;;;2.40;;
55015;SDS011;40919;43.236;21.590;2023-07-09T15:29:14;7.45;;;3.55;;
55015;SDS011;40919;43.236;21.590;2023-07-09T15:31:43;5.40;;;2.47;;
55015;SDS011;40919;43.236;21.590;2023-07-09T15:34:09;5.05;;;2.53;;
55015;SDS011;40919;43.236;21.590;2023-07-09T15:36:36;12.43;;;10.13;;
55015;SDS011;40919;43.236;21.590;2023-07-09T15:39:02;9.27;;;5.10;;
55015;SDS011;40919;43.236;21.590;2023-07-09T15:41:28;13.63;;;12.20;;
55015;SDS011;40919;43.236;21.590;2023-07-09T15:43:54;5.85;;;2.90;;
55015;SDS011;40919;43.236;21.590;2023-07-09T15:46:21;5.90;;;3.05;;
55015;SDS011;40919;43.236;21.590;2023-07-09T15:48:48;10.23;;;8.55;;
55015;SDS011;40919;43.236;21.590;2023-07-09T15:51:15;5.70;;;3.63;;
55015;SDS011;40919;43.236;21.590;2023-07-09T15:53:41;7.05;;;3.55;;